createdAt,value
2018-02-07T00:02:24.194Z,21.10
2018-02-07T00:04:50.442Z,23.37
2018-02-07T00:07:16.750Z,21.70
2018-02-07T00:09:43.054Z,21.73
2018-02-07T00:12:09.415Z,21.87
2018-02-07T00:14:35.718Z,21.97
2018-02-07T00:17:01.994Z,19.67
2018-02-07T00:19:28.334Z,21.40
2018-02-07T00:21:55.336Z,21.20
2018-02-07T00:24:21.591Z,20.90
2018-02-07T00:26:47.856Z,21.00
2018-02-07T00:29:14.837Z,20.77
2018-02-07T00:31:41.092Z,21.80
2018-02-07T00:34:07.380Z,19.73
2018-02-07T00:36:33.655Z,19.60
2018-02-07T00:38:59.939Z,22.10
2018-02-07T00:41:26.305Z,19.30
2018-02-07T00:43:52.580Z,20.50
2018-02-07T00:48:52.494Z,20.30
2018-02-07T00:51:19.595Z,20.93
2018-02-07T00:53:45.923Z,21.70
2018-02-07T00:56:12.140Z,22.87
2018-02-07T00:58:38.411Z,21.30
2018-02-07T01:01:04.793Z,22.10
2018-02-07T01:03:31.142Z,22.93
2018-02-07T01:05:57.432Z,22.60
2018-02-07T01:08:24.435Z,20.47
2018-02-07T01:10:50.754Z,23.50
2018-02-07T01:13:17.043Z,24.10
2018-02-07T01:15:44.042Z,23.87
2018-02-07T01:18:10.288Z,22.70
2018-02-07T01:20:36.579Z,23.27
2018-02-07T01:23:02.879Z,22.67
2018-02-07T01:25:29.856Z,21.80
2018-02-07T01:27:56.104Z,21.60
2018-02-07T01:30:22.350Z,22.13
2018-02-07T01:32:48.646Z,23.53
2018-02-07T01:35:14.914Z,22.07
2018-02-07T01:37:41.204Z,23.47
2018-02-07T01:40:07.490Z,25.70
2018-02-07T01:42:33.782Z,24.53
2018-02-07T01:45:00.107Z,20.83
2018-02-07T01:47:26.363Z,23.27
2018-02-07T01:49:52.671Z,22.93
2018-02-07T01:52:18.945Z,22.97
2018-02-07T01:54:45.311Z,22.50
2018-02-07T01:57:11.583Z,23.30
2018-02-07T01:59:37.871Z,22.70
2018-02-07T02:02:04.166Z,22.67
2018-02-07T02:04:30.427Z,24.20
2018-02-07T02:06:56.722Z,24.03
2018-02-07T02:09:23.865Z,24.80
2018-02-07T02:11:50.147Z,21.80
2018-02-07T02:14:16.457Z,22.47
2018-02-07T02:16:42.708Z,21.17
2018-02-07T02:19:08.987Z,25.77
2018-02-07T02:21:35.338Z,20.47
2018-02-07T02:24:02.351Z,24.13
2018-02-07T02:26:28.644Z,22.90
2018-02-07T02:28:54.896Z,21.70
2018-02-07T02:31:21.181Z,22.80
2018-02-07T02:33:48.189Z,21.90
2018-02-07T02:36:33.196Z,22.00
2018-02-07T02:39:00.202Z,23.47
2018-02-07T02:41:26.489Z,22.60
2018-02-07T02:43:52.768Z,24.30
2018-02-07T02:46:19.066Z,24.00
2018-02-07T02:48:45.461Z,23.53
2018-02-07T02:51:12.519Z,23.37
2018-02-07T02:53:39.585Z,24.07
2018-02-07T02:56:05.943Z,23.80
2018-02-07T02:58:32.204Z,22.30
2018-02-07T03:00:58.502Z,22.47
2018-02-07T03:03:24.784Z,22.80
2018-02-07T03:05:51.882Z,21.93
2018-02-07T03:08:18.270Z,23.80
2018-02-07T03:10:44.601Z,22.27
2018-02-07T03:13:11.907Z,23.33
2018-02-07T03:15:38.639Z,23.27
2018-02-07T03:18:04.979Z,24.10
2018-02-07T03:20:31.439Z,24.07
2018-02-07T03:22:57.873Z,23.20
2018-02-07T03:25:24.231Z,23.10
2018-02-07T03:27:51.271Z,25.17
2018-02-07T03:30:18.370Z,24.77
2018-02-07T03:32:44.725Z,23.00
2018-02-07T03:35:11.089Z,22.60
2018-02-07T03:37:38.143Z,24.03
2018-02-07T03:40:05.176Z,23.70
2018-02-07T03:42:32.224Z,20.87
2018-02-07T03:44:59.376Z,24.70
2018-02-07T03:47:26.478Z,24.27
2018-02-07T03:49:52.764Z,24.13
2018-02-07T03:52:20.235Z,24.27
2018-02-07T03:54:46.521Z,21.57
2018-02-07T03:57:12.816Z,24.60
2018-02-07T03:59:39.112Z,23.53
2018-02-07T04:02:06.193Z,22.20
2018-02-07T04:04:32.489Z,20.80
2018-02-07T04:06:59.536Z,19.83
2018-02-07T04:09:25.940Z,20.80
2018-02-07T04:11:53.710Z,20.10
2018-02-07T04:14:20.052Z,21.60
2018-02-07T04:16:46.291Z,21.00
2018-02-07T04:19:13.335Z,21.23
2018-02-07T04:21:40.348Z,20.33
2018-02-07T04:24:06.610Z,19.73
2018-02-07T04:26:33.634Z,18.80
2018-02-07T04:28:59.954Z,16.73
2018-02-07T04:31:26.211Z,18.00
2018-02-07T04:33:52.512Z,19.53
2018-02-07T04:36:18.771Z,18.77
2018-02-07T04:38:45.831Z,19.60
2018-02-07T04:41:12.951Z,19.97
2018-02-07T04:43:39.329Z,18.03
2018-02-07T04:46:05.617Z,18.20
2018-02-07T04:48:31.947Z,19.90
2018-02-07T04:50:58.257Z,18.20
2018-02-07T04:53:24.563Z,19.00
2018-02-07T04:55:50.835Z,20.03
2018-02-07T04:58:17.154Z,19.33
2018-02-07T05:00:43.492Z,20.50
2018-02-07T05:03:09.814Z,20.03
2018-02-07T05:05:36.147Z,20.83
2018-02-07T05:08:02.422Z,19.50
2018-02-07T05:10:29.432Z,20.80
2018-02-07T05:12:55.718Z,17.80
2018-02-07T05:15:21.996Z,18.90
2018-02-07T05:17:48.360Z,19.37
2018-02-07T05:20:15.446Z,19.27
2018-02-07T05:22:41.734Z,17.67
2018-02-07T05:25:08.747Z,20.73
2018-02-07T05:27:35.068Z,19.57
2018-02-07T05:30:01.347Z,19.97
2018-02-07T05:32:28.353Z,20.60
2018-02-07T05:34:54.673Z,19.97
2018-02-07T05:37:21.005Z,20.70
2018-02-07T05:39:47.268Z,19.37
2018-02-07T05:42:13.551Z,20.87
2018-02-07T05:44:39.827Z,19.47
2018-02-07T05:47:06.154Z,19.63
2018-02-07T05:49:32.442Z,20.20
2018-02-07T05:51:58.719Z,20.03
2018-02-07T05:54:25.731Z,18.57
2018-02-07T05:56:52.956Z,20.90
2018-02-07T05:59:19.284Z,19.20
2018-02-07T06:01:45.560Z,20.23
2018-02-07T06:04:11.884Z,18.10
2018-02-07T06:06:38.189Z,17.67
2018-02-07T06:09:04.491Z,18.53
2018-02-07T06:11:30.786Z,18.50
2018-02-07T06:13:57.102Z,20.73
2018-02-07T06:16:23.407Z,18.47
2018-02-07T06:18:49.650Z,21.13
2018-02-07T06:21:15.957Z,19.60
2018-02-07T06:23:42.204Z,20.97
2018-02-07T06:26:08.472Z,20.30
2018-02-07T06:28:36.235Z,20.40
2018-02-07T06:31:02.479Z,21.30
2018-02-07T06:33:28.756Z,24.63
2018-02-07T06:35:55.021Z,23.60
2018-02-07T06:38:21.324Z,22.20
2018-02-07T06:40:47.641Z,20.80
2018-02-07T06:43:13.923Z,21.00
2018-02-07T06:45:40.247Z,21.40
2018-02-07T06:48:08.038Z,21.53
2018-02-07T06:50:42.120Z,20.73
2018-02-07T06:53:08.423Z,19.37
2018-02-07T06:55:34.680Z,21.60
2018-02-07T06:58:01.139Z,21.67
2018-02-07T07:00:27.521Z,24.50
2018-02-07T07:02:53.933Z,20.83
2018-02-07T07:05:20.231Z,21.77
2018-02-07T07:07:47.137Z,20.07
2018-02-07T07:10:13.467Z,26.73
2018-02-07T07:12:39.999Z,25.33
2018-02-07T07:15:06.319Z,26.73
2018-02-07T07:17:32.588Z,26.50
2018-02-07T07:19:58.936Z,24.63
2018-02-07T07:22:25.296Z,22.90
2018-02-07T07:24:51.622Z,25.00
2018-02-07T07:27:17.964Z,22.83
2018-02-07T07:29:44.284Z,22.33
2018-02-07T07:32:10.645Z,24.40
2018-02-07T07:34:36.940Z,23.50
2018-02-07T07:37:03.966Z,23.43
2018-02-07T07:39:30.266Z,25.97
2018-02-07T07:41:56.658Z,24.67
2018-02-07T07:44:23.007Z,25.13
2018-02-07T07:46:49.279Z,24.40
2018-02-07T07:49:16.415Z,24.57
2018-02-07T07:54:16.356Z,24.07
2018-02-07T07:56:42.688Z,21.50
2018-02-07T07:59:09.039Z,21.87
2018-02-07T08:01:35.320Z,23.60
2018-02-07T08:04:01.594Z,24.63
2018-02-07T08:06:27.884Z,26.43
2018-02-07T08:08:54.150Z,24.70
2018-02-07T08:11:20.386Z,22.30
2018-02-07T08:13:46.696Z,25.50
2018-02-07T08:16:13.024Z,25.33
2018-02-07T08:18:39.270Z,24.50
2018-02-07T08:21:05.544Z,24.20
2018-02-07T08:23:31.818Z,22.73
2018-02-07T08:25:58.097Z,23.83
2018-02-07T08:28:24.392Z,24.57
2018-02-07T08:30:50.763Z,24.70
2018-02-07T08:33:17.037Z,27.23
2018-02-07T08:35:43.378Z,24.83
2018-02-07T08:38:09.661Z,24.77
2018-02-07T08:40:35.923Z,25.77
2018-02-07T08:43:02.200Z,26.10
2018-02-07T08:45:28.488Z,25.00
2018-02-07T08:47:54.740Z,23.60
2018-02-07T08:50:21.811Z,27.30
2018-02-07T08:52:48.804Z,26.20
2018-02-07T08:55:15.056Z,23.70
2018-02-07T08:57:41.361Z,24.80
2018-02-07T09:00:07.705Z,24.37
2018-02-07T09:02:33.948Z,24.33
2018-02-07T09:05:00.268Z,23.27
2018-02-07T09:07:26.642Z,23.80
2018-02-07T09:09:52.942Z,25.17
2018-02-07T09:12:19.276Z,23.33
2018-02-07T09:14:45.603Z,23.87
2018-02-07T09:17:11.978Z,24.40
2018-02-07T09:19:38.249Z,24.10
2018-02-07T09:22:04.561Z,25.47
2018-02-07T09:24:30.812Z,23.03
2018-02-07T09:26:57.077Z,26.37
2018-02-07T09:29:24.218Z,26.10
2018-02-07T09:31:50.640Z,25.37
2018-02-07T09:34:16.898Z,28.90
2018-02-07T09:36:43.895Z,28.23
2018-02-07T09:39:10.177Z,27.93
2018-02-07T09:41:36.446Z,26.87
2018-02-07T09:44:02.931Z,26.17
2018-02-07T09:46:30.094Z,26.40
2018-02-07T09:48:57.258Z,28.00
2018-02-07T09:51:23.532Z,28.70
2018-02-07T09:53:49.843Z,27.17
2018-02-07T09:56:16.156Z,26.73
2018-02-07T09:58:42.720Z,28.37
2018-02-07T10:01:09.069Z,26.30
2018-02-07T10:03:35.354Z,28.77
2018-02-07T10:06:01.612Z,27.23
2018-02-07T10:08:27.888Z,28.23
2018-02-07T10:10:54.148Z,27.13
2018-02-07T10:13:20.895Z,29.37
2018-02-07T10:15:47.322Z,31.23
2018-02-07T10:18:13.628Z,30.67
2018-02-07T10:20:40.634Z,28.73
2018-02-07T10:23:07.043Z,27.27
2018-02-07T10:25:33.371Z,31.10
2018-02-07T10:27:59.627Z,30.00
2018-02-07T10:30:25.931Z,30.23
2018-02-07T10:32:52.167Z,32.37
2018-02-07T10:35:18.497Z,31.80
2018-02-07T10:37:44.761Z,31.60
2018-02-07T10:40:11.067Z,28.93
2018-02-07T10:42:37.347Z,29.13
2018-02-07T10:45:03.677Z,28.93
2018-02-07T10:47:30.676Z,28.70
2018-02-07T10:49:57.036Z,29.77
2018-02-07T10:52:23.352Z,30.00
2018-02-07T10:54:49.616Z,28.07
2018-02-07T10:57:15.872Z,29.87
2018-02-07T10:59:42.128Z,27.37
2018-02-07T11:02:08.452Z,30.83
2018-02-07T11:04:34.764Z,30.40
2018-02-07T11:07:01.075Z,31.10
2018-02-07T11:09:27.382Z,29.77
2018-02-07T11:11:54.449Z,30.33
2018-02-07T11:14:20.732Z,28.63
2018-02-07T11:16:47.126Z,28.33
2018-02-07T11:19:13.414Z,31.53
2018-02-07T11:21:39.690Z,31.17
2018-02-07T11:24:05.945Z,31.07
2018-02-07T11:26:32.249Z,29.77
2018-02-07T11:28:58.498Z,31.17
2018-02-07T11:31:24.797Z,32.00
2018-02-07T11:33:51.099Z,32.47
2018-02-07T11:36:18.137Z,31.27
2018-02-07T11:38:44.453Z,33.83
2018-02-07T11:41:11.671Z,31.30
2018-02-07T11:43:38.024Z,31.00
2018-02-07T11:46:04.385Z,31.03
2018-02-07T11:48:30.744Z,34.53
2018-02-07T11:50:57.764Z,32.07
2018-02-07T11:53:24.057Z,31.43
2018-02-07T11:55:50.419Z,33.70
2018-02-07T11:58:16.756Z,33.30
2018-02-07T12:00:43.784Z,32.90
2018-02-07T12:03:10.252Z,30.13
2018-02-07T12:05:36.566Z,33.57
2018-02-07T12:08:03.794Z,32.70
2018-02-07T12:10:30.097Z,32.37
2018-02-07T12:12:57.110Z,35.00
2018-02-07T12:15:23.391Z,32.80
2018-02-07T12:17:49.675Z,31.40
2018-02-07T12:20:15.915Z,30.40
2018-02-07T12:22:42.971Z,33.90
2018-02-07T12:25:09.962Z,33.70
2018-02-07T12:27:36.276Z,32.33
2018-02-07T12:30:02.529Z,33.93
2018-02-07T12:32:28.791Z,33.40
2018-02-07T12:34:55.812Z,31.73
2018-02-07T12:37:22.094Z,33.83
2018-02-07T12:39:55.310Z,33.93
2018-02-07T12:42:21.607Z,34.97
2018-02-07T12:44:47.881Z,35.23
2018-02-07T12:47:14.167Z,34.33
2018-02-07T12:49:40.433Z,34.77
2018-02-07T12:52:06.707Z,35.27
2018-02-07T12:54:33.855Z,32.97
2018-02-07T12:57:00.856Z,37.23
2018-02-07T12:59:27.135Z,32.87
2018-02-07T13:01:54.134Z,33.97
2018-02-07T13:04:20.426Z,35.50
2018-02-07T13:06:47.425Z,36.10
2018-02-07T13:09:13.736Z,33.83
2018-02-07T13:11:40.030Z,32.60
2018-02-07T13:14:07.016Z,33.13
2018-02-07T13:16:33.312Z,32.37
2018-02-07T13:19:00.299Z,34.20
2018-02-07T13:21:26.592Z,34.60
2018-02-07T13:23:53.563Z,32.97
2018-02-07T13:26:19.899Z,31.60
2018-02-07T13:28:46.169Z,31.87
2018-02-07T13:31:12.443Z,30.03
2018-02-07T13:33:38.745Z,32.23
2018-02-07T13:36:05.928Z,32.37
2018-02-07T13:38:32.168Z,31.00
2018-02-07T13:40:58.485Z,32.30
2018-02-07T13:43:24.800Z,33.33
2018-02-07T13:45:51.049Z,32.10
2018-02-07T13:48:17.271Z,30.13
2018-02-07T13:50:43.519Z,32.70
2018-02-07T13:53:10.132Z,31.30
2018-02-07T13:55:36.368Z,29.53
2018-02-07T13:58:02.616Z,32.27
2018-02-07T14:00:28.873Z,31.20
2018-02-07T14:02:55.128Z,30.63
2018-02-07T14:05:22.142Z,32.50
2018-02-07T14:07:48.397Z,32.00
2018-02-07T14:10:14.740Z,33.33
2018-02-07T14:12:40.949Z,31.50
2018-02-07T14:15:07.196Z,32.10
2018-02-07T14:17:34.696Z,31.30
2018-02-07T14:20:01.001Z,31.60
2018-02-07T14:22:27.990Z,30.83
2018-02-07T14:24:54.257Z,33.30
2018-02-07T14:27:20.705Z,32.33
2018-02-07T14:29:47.759Z,32.27
2018-02-07T14:32:14.791Z,32.23
2018-02-07T14:34:41.785Z,32.00
2018-02-07T14:37:08.067Z,31.83
2018-02-07T14:39:35.119Z,34.33
2018-02-07T14:42:02.152Z,32.70
2018-02-07T14:44:28.419Z,31.77
2018-02-07T14:46:54.672Z,37.67
2018-02-07T14:49:20.948Z,37.37
2018-02-07T14:51:47.960Z,35.27
2018-02-07T14:54:14.204Z,34.87
2018-02-07T14:56:40.444Z,35.30
2018-02-07T14:59:06.708Z,33.30
2018-02-07T15:01:32.976Z,35.03
2018-02-07T15:03:59.230Z,33.37
2018-02-07T15:06:26.253Z,36.37
2018-02-07T15:08:52.523Z,33.97
2018-02-07T15:11:19.564Z,32.80
2018-02-07T15:13:45.821Z,32.50
2018-02-07T15:16:12.081Z,32.37
2018-02-07T15:18:38.363Z,33.77
2018-02-07T15:21:04.671Z,34.47
2018-02-07T15:23:30.951Z,33.40
2018-02-07T15:25:57.211Z,33.73
2018-02-07T15:28:23.459Z,33.73
2018-02-07T15:30:49.729Z,34.53
2018-02-07T15:33:16.044Z,33.90
2018-02-07T15:35:43.094Z,33.03
2018-02-07T15:38:10.196Z,33.40
2018-02-07T15:40:36.524Z,33.80
2018-02-07T15:43:02.787Z,35.93
2018-02-07T15:45:29.842Z,36.20
2018-02-07T15:47:56.124Z,36.80
2018-02-07T15:50:22.404Z,35.20
2018-02-07T15:52:49.494Z,38.10
2018-02-07T15:55:15.771Z,39.37
2018-02-07T15:57:42.140Z,36.70
2018-02-07T16:00:08.841Z,38.20
2018-02-07T16:02:35.121Z,37.77
2018-02-07T16:05:01.385Z,36.07
2018-02-07T16:07:27.641Z,38.20
2018-02-07T16:09:53.957Z,39.33
2018-02-07T16:12:20.233Z,36.50
2018-02-07T16:14:47.693Z,36.17
2018-02-07T16:17:14.095Z,35.53
2018-02-07T16:19:40.374Z,34.93
2018-02-07T16:22:06.664Z,35.70
2018-02-07T16:24:33.723Z,37.00
2018-02-07T16:27:00.773Z,35.80
2018-02-07T16:29:27.098Z,35.23
2018-02-07T16:31:54.108Z,34.87
2018-02-07T16:34:20.364Z,36.93
2018-02-07T16:36:47.404Z,35.57
2018-02-07T16:39:13.890Z,35.70
2018-02-07T16:41:40.207Z,34.23
2018-02-07T16:44:06.537Z,32.70
2018-02-07T16:46:32.847Z,36.30
2018-02-07T16:48:59.895Z,33.43
2018-02-07T16:51:27.015Z,36.50
2018-02-07T16:53:53.296Z,36.53
2018-02-07T16:56:19.561Z,36.50
2018-02-07T16:58:45.839Z,37.80
2018-02-07T17:01:12.919Z,37.40
2018-02-07T17:03:39.334Z,37.83
2018-02-07T17:06:05.628Z,37.70
2018-02-07T17:08:31.901Z,38.03
2018-02-07T17:10:58.210Z,39.17
2018-02-07T17:13:25.324Z,38.30
2018-02-07T17:15:51.724Z,39.70
2018-02-07T17:18:18.014Z,39.23
2018-02-07T17:20:45.352Z,39.60
2018-02-07T17:23:11.622Z,39.53
2018-02-07T17:25:37.869Z,37.53
2018-02-07T17:28:04.124Z,39.70
2018-02-07T17:30:30.398Z,40.30
2018-02-07T17:32:57.438Z,39.53
2018-02-07T17:35:24.513Z,39.80
2018-02-07T17:37:50.811Z,40.70
2018-02-07T17:40:17.861Z,37.90
2018-02-07T17:42:44.943Z,39.17
2018-02-07T17:45:12.362Z,37.60
2018-02-07T17:47:38.708Z,39.73
2018-02-07T17:50:06.228Z,39.53
2018-02-07T17:52:32.494Z,41.47
2018-02-07T17:54:59.583Z,39.87
2018-02-07T17:57:25.898Z,40.90
2018-02-07T17:59:52.292Z,40.60
2018-02-07T18:02:19.857Z,41.90
2018-02-07T18:04:46.986Z,39.80
2018-02-07T18:07:13.254Z,42.27
2018-02-07T18:09:40.381Z,41.27
2018-02-07T18:12:07.625Z,39.37
2018-02-07T18:14:33.985Z,42.67
2018-02-07T18:17:01.083Z,41.63
2018-02-07T18:19:27.331Z,40.07
2018-02-07T18:21:53.599Z,40.97
2018-02-07T18:24:19.941Z,39.67
2018-02-07T18:26:46.282Z,42.17
2018-02-07T18:29:13.305Z,43.10
2018-02-07T18:31:39.584Z,41.30
2018-02-07T18:34:05.868Z,43.83
2018-02-07T18:36:32.135Z,41.53
2018-02-07T18:38:58.431Z,38.70
2018-02-07T18:41:24.746Z,38.90
2018-02-07T18:43:51.780Z,42.07
2018-02-07T18:46:19.040Z,42.07
2018-02-07T18:48:45.406Z,40.63
2018-02-07T18:51:11.738Z,43.07
2018-02-07T18:53:38.028Z,39.77
2018-02-07T18:56:04.339Z,40.67
2018-02-07T18:58:30.667Z,42.43
2018-02-07T19:00:56.941Z,42.37
2018-02-07T19:03:24.086Z,42.20
2018-02-07T19:05:51.288Z,42.00
2018-02-07T19:08:17.829Z,44.07
2018-02-07T19:10:44.169Z,44.70
2018-02-07T19:13:10.501Z,43.53
2018-02-07T19:15:36.877Z,45.00
2018-02-07T19:18:03.981Z,43.03
2018-02-07T19:20:30.402Z,44.23
2018-02-07T19:22:56.740Z,43.90
2018-02-07T19:25:23.287Z,45.47
2018-02-07T19:27:49.735Z,44.37
2018-02-07T19:30:16.171Z,45.30
2018-02-07T19:32:42.622Z,47.23
2018-02-07T19:35:09.751Z,47.83
2018-02-07T19:37:36.226Z,46.97
2018-02-07T19:40:02.527Z,54.13
2018-02-07T19:42:30.675Z,46.90
2018-02-07T19:44:57.026Z,48.90
2018-02-07T19:47:24.165Z,45.30
2018-02-07T19:49:50.491Z,45.77
2018-02-07T19:52:17.232Z,47.90
2018-02-07T19:54:43.638Z,47.33
2018-02-07T19:57:09.938Z,47.20
2018-02-07T19:59:36.994Z,48.70
2018-02-07T20:02:03.308Z,50.30
2018-02-07T20:04:30.428Z,47.40
2018-02-07T20:06:56.710Z,48.97
2018-02-07T20:09:23.013Z,50.43
2018-02-07T20:11:49.290Z,50.30
2018-02-07T20:14:15.606Z,47.00
2018-02-07T20:16:44.026Z,48.23
2018-02-07T20:19:10.565Z,48.70
2018-02-07T20:21:36.881Z,52.27
2018-02-07T20:24:03.183Z,48.90
2018-02-07T20:26:29.521Z,49.67
2018-02-07T20:28:56.886Z,49.13
2018-02-07T20:31:23.236Z,49.80
2018-02-07T20:33:49.506Z,51.87
2018-02-07T20:36:16.509Z,60.97
2018-02-07T20:38:42.792Z,49.53
2018-02-07T20:41:09.862Z,49.87
2018-02-07T20:43:36.167Z,53.80
2018-02-07T20:46:03.213Z,55.03
2018-02-07T20:48:30.279Z,52.27
2018-02-07T20:50:56.565Z,53.17
2018-02-07T20:53:22.855Z,50.23
2018-02-07T20:55:49.134Z,50.80
2018-02-07T20:58:16.031Z,52.63
2018-02-07T21:00:42.325Z,50.10
2018-02-07T21:03:09.402Z,52.00
2018-02-07T21:05:35.736Z,52.10
2018-02-07T21:08:02.085Z,49.07
2018-02-07T21:10:28.400Z,51.47
2018-02-07T21:12:54.669Z,50.73
2018-02-07T21:15:20.951Z,51.03
2018-02-07T21:17:47.261Z,52.27
2018-02-07T21:20:14.253Z,51.67
2018-02-07T21:22:40.551Z,49.73
2018-02-07T21:25:07.810Z,52.50
2018-02-07T21:27:34.079Z,53.60
2018-02-07T21:30:00.362Z,51.63
2018-02-07T21:32:26.717Z,51.60
2018-02-07T21:34:53.001Z,54.13
2018-02-07T21:37:20.081Z,56.43
2018-02-07T21:39:46.320Z,50.77
2018-02-07T21:42:12.644Z,51.63
2018-02-07T21:44:38.980Z,52.60
2018-02-07T21:47:05.263Z,50.40
2018-02-07T21:49:32.392Z,54.70
2018-02-07T21:51:58.690Z,51.23
2018-02-07T21:54:24.962Z,52.20
2018-02-07T21:56:51.228Z,54.27
2018-02-07T21:59:17.556Z,48.90
2018-02-07T22:01:44.633Z,54.90
2018-02-07T22:04:10.913Z,51.73
2018-02-07T22:06:37.205Z,51.17
2018-02-07T22:09:03.514Z,54.43
2018-02-07T22:11:29.825Z,52.43
2018-02-07T22:13:56.846Z,52.10
2018-02-07T22:16:23.121Z,50.07
2018-02-07T22:18:49.395Z,55.07
2018-02-07T22:21:15.701Z,51.13
2018-02-07T22:23:42.033Z,50.53
2018-02-07T22:26:08.313Z,53.97
2018-02-07T22:28:35.375Z,53.20
2018-02-07T22:31:02.356Z,53.23
2018-02-07T22:33:28.668Z,56.03
2018-02-07T22:35:54.912Z,54.43
2018-02-07T22:38:21.215Z,54.40
2018-02-07T22:40:47.502Z,54.70
2018-02-07T22:43:13.768Z,52.70
2018-02-07T22:45:40.786Z,52.20
2018-02-07T22:48:07.060Z,51.30
2018-02-07T22:50:33.282Z,50.50
2018-02-07T22:52:59.560Z,53.03
2018-02-07T22:55:25.812Z,51.37
2018-02-07T22:57:52.071Z,50.63
2018-02-07T23:00:18.367Z,52.17
2018-02-07T23:02:45.417Z,54.07
2018-02-07T23:05:11.698Z,52.37
2018-02-07T23:07:37.955Z,54.63
2018-02-07T23:10:04.197Z,53.60
2018-02-07T23:12:30.480Z,53.37
2018-02-07T23:14:56.754Z,49.70
2018-02-07T23:17:23.030Z,52.50
2018-02-07T23:19:49.257Z,48.47
2018-02-07T23:22:15.511Z,48.50
2018-02-07T23:24:41.756Z,49.90
2018-02-07T23:27:07.991Z,49.40
2018-02-07T23:29:34.233Z,47.93
2018-02-07T23:32:00.558Z,50.57
2018-02-07T23:34:26.807Z,50.70
2018-02-07T23:36:53.044Z,49.27
2018-02-07T23:39:20.040Z,47.63
2018-02-07T23:41:46.287Z,47.53
2018-02-07T23:44:12.528Z,46.43
2018-02-07T23:46:38.788Z,45.70
2018-02-07T23:49:05.084Z,44.37
2018-02-07T23:51:31.322Z,48.13
2018-02-07T23:53:57.574Z,49.20
2018-02-07T23:56:24.580Z,46.57
2018-02-07T23:58:50.808Z,46.67
